Share

Allen, OK

9:12 AM CDT on April 23, 2014 (GMT -0500)
Ada Municipal (KADH) Elev 1017 ft | 34.80 °N, 96.67 °W | Change Station

Current weather conditions updated 17 minutes ago

Clear
Clear
63 °F
Feels Like 63 °F
N
10
Wind Variable Wind from SSE
Sunrise 6:43 AM
Sunset 8:04 PM
Moon Waning Crescent

Today is forecast to be Warmer than yesterday. Showers and thunderstorms late tonight.

Pressure 29.94 in
Visibility 10.0 miles
Clouds Clear
Dew Point 50 °F
Humidity 63%
Rainfall 0.00 in
Snow Depth Not available.
UV 2 out of 16
Pollen 9.90 out of 12
Air Quality Not available.
Flu Activity Regional
METAR KADH 231355Z AUTO 16009KT 10SM CLR 17/10 A2994 RMK AO2

More Conditions Fewer Conditions

Pressure 29.94 in
Visibility 10.0 miles
Clouds Clear
Dew Point 50 °F
Humidity 63%
Rainfall 0.00 in
Snow Depth Not available.
UV 2 out of 16
Pollen 9.90 out of 12
Air Quality Not available.
Flu Activity Regional
METAR KADH 231355Z AUTO 16009KT 10SM CLR 17/10 A2994 RMK AO2

More Conditions Fewer Conditions

10-Day Weather Forecast

Almanac

Astronomy

Apr. 23, 2014 Rise Set
Actual Time 6:43 AM CDT 8:04 PM CDT
Civil Twilight 6:17 AM CDT 8:31 PM CDT
Nautical Twilight 5:45 AM CDT 9:02 PM CDT
Astronomical Twilight 5:12 AM CDT 9:35 PM CDT
Moon 3:01 AM CDT 2:27 PM CDT
Length of Visible Light 14h 13m
Length of Day
13h 20m
Tomorrow will be 1m 58s longer.
Waning Crescent, 36% of the Moon is Illuminated
Today
Waning Crescent
Apr 29
New
May 6
First Quarter
May 14
Full
May 21
Last Quarter

Today's Extremes

State Highs State Lows

Community

  • spring flowers
    spring flowers
  • Earth Day Spectrum Ove' Blue
    Earth Day Spectrum Ove' Blue
  • BARN B&W
    BARN B&W
  • April Sunset
    April Sunset
  • Waiting..
    Waiting..

WunderPhotos

Upload Photos

1,704,294 photos uploaded!

Nearby

Snow Depth

Station Depth Elevation
No new snow has been reported.

Coastal Water Temperatures

Place Temperature
No Stations Reporting

Earthquake Activity

City Distance Mag. Time & Date
Stillwater, Oklahoma 89 miles 2.8 5:30 PM CDT
2014-04-19
Enid, Oklahoma 143 miles 2.9 1:11 PM CDT
2014-04-19
Perry, Oklahoma 107 miles 4.0 5:43 AM CDT
2014-04-19
Stillwater, Oklahoma 89 miles 2.7 3:40 AM CDT
2014-04-19
Minimum magnitude displayed is 2.5.

Nearby Weather Stations

Station Location Temp. Dew Point Humidity Wind Precip. Elev Updated Type
Horntown OK, Holdenville, OK 65.1 °F 54 °F 67% SSW  at  4.7 mph - / hr 827 ft 9:02 AM CDT Normal

Show More Stations Show Fewer Stations

What do you think?

We're not finished. Please let us know what you like, what you don't like, and what you are still missing.